createdAt,value
2022-11-21T00:01:15.485Z,43.70
2022-11-21T00:03:42.933Z,55.50
2022-11-21T00:06:10.378Z,52.00
2022-11-21T00:08:37.909Z,51.10
2022-11-21T00:11:05.310Z,36.57
2022-11-21T00:13:32.827Z,53.43
2022-11-21T00:16:03.994Z,53.93
2022-11-21T00:18:31.541Z,57.33
2022-11-21T00:20:59.041Z,49.73
2022-11-21T00:23:26.505Z,47.73
2022-11-21T00:25:53.963Z,57.40
2022-11-21T00:28:21.384Z,57.67
2022-11-21T00:30:48.845Z,52.37
2022-11-21T00:33:16.326Z,61.43
2022-11-21T00:35:43.778Z,64.63
2022-11-21T00:38:11.202Z,65.17
2022-11-21T00:40:38.615Z,55.40
2022-11-21T00:43:06.059Z,71.57
2022-11-21T00:45:33.493Z,70.93
2022-11-21T00:48:01.199Z,83.00
2022-11-21T00:50:28.623Z,67.67
2022-11-21T00:52:56.761Z,76.30
2022-11-21T00:55:24.717Z,79.63
2022-11-21T00:57:52.236Z,81.80
2022-11-21T01:00:19.747Z,81.97
2022-11-21T01:02:47.154Z,72.33
2022-11-21T01:05:14.571Z,82.33
2022-11-21T01:07:42.021Z,80.23
2022-11-21T01:10:11.573Z,87.10
2022-11-21T01:12:39.031Z,72.67
2022-11-21T01:15:06.871Z,91.80
2022-11-21T01:17:34.362Z,90.07
2022-11-21T01:20:01.795Z,95.10
2022-11-21T01:22:29.202Z,114.73
2022-11-21T01:24:56.634Z,84.73
2022-11-21T01:27:24.099Z,96.47
2022-11-21T01:29:51.530Z,90.23
2022-11-21T01:32:19.489Z,91.10
2022-11-21T01:34:46.969Z,78.43
2022-11-21T01:37:14.405Z,100.97
2022-11-21T01:39:41.874Z,93.77
2022-11-21T01:42:10.083Z,95.67
2022-11-21T01:44:51.119Z,98.13
2022-11-21T01:47:18.578Z,86.93
2022-11-21T01:49:46.686Z,82.20
2022-11-21T01:52:19.800Z,97.73
2022-11-21T01:54:47.165Z,115.87
2022-11-21T01:57:16.360Z,93.37
2022-11-21T01:59:49.833Z,91.07
2022-11-21T02:02:18.685Z,98.10
2022-11-21T02:04:46.530Z,112.20
2022-11-21T02:07:15.406Z,146.47
2022-11-21T02:09:44.756Z,107.77
2022-11-21T02:12:18.954Z,89.13
2022-11-21T02:14:46.437Z,138.60
2022-11-21T02:17:13.883Z,96.17
2022-11-21T02:20:00.045Z,127.07
2022-11-21T02:22:39.308Z,93.67
2022-11-21T02:25:09.633Z,84.20
2022-11-21T02:27:37.204Z,103.83
2022-11-21T02:30:05.751Z,93.20
2022-11-21T02:32:35.077Z,94.50
2022-11-21T02:35:02.555Z,106.30
2022-11-21T02:37:30.149Z,92.20
2022-11-21T02:39:59.473Z,97.40
2022-11-21T02:42:50.093Z,82.40
2022-11-21T02:45:29.494Z,80.63
2022-11-21T02:48:02.392Z,79.23
2022-11-21T02:50:41.370Z,88.00
2022-11-21T02:53:10.567Z,87.83
2022-11-21T02:55:38.095Z,85.40
2022-11-21T02:58:06.025Z,79.90
2022-11-21T03:00:35.071Z,78.00
2022-11-21T03:03:02.998Z,80.10
2022-11-21T03:05:30.739Z,90.10
2022-11-21T03:07:58.251Z,69.77
2022-11-21T03:10:25.952Z,85.17
2022-11-21T03:12:53.545Z,80.00
2022-11-21T03:15:20.975Z,92.57
2022-11-21T03:17:48.946Z,86.40
2022-11-21T03:20:16.437Z,91.90
2022-11-21T03:22:43.880Z,82.43
2022-11-21T03:25:11.341Z,80.17
2022-11-21T03:27:38.769Z,95.47
2022-11-21T03:30:06.543Z,87.97
2022-11-21T03:32:34.032Z,85.73
2022-11-21T03:35:01.441Z,94.20
2022-11-21T03:37:28.870Z,88.20
2022-11-21T03:39:56.305Z,78.73
2022-11-21T03:42:23.786Z,87.27
2022-11-21T03:44:51.217Z,95.87
2022-11-21T03:47:18.658Z,84.87
2022-11-21T03:49:46.102Z,83.43
2022-11-21T03:52:13.533Z,82.80
2022-11-21T03:54:41.114Z,82.50
2022-11-21T03:57:08.569Z,82.90
2022-11-21T03:59:36.015Z,80.93
2022-11-21T04:02:03.593Z,82.07
2022-11-21T04:04:31.183Z,83.70
2022-11-21T04:06:58.650Z,77.40
2022-11-21T04:09:26.105Z,76.83
2022-11-21T04:11:53.546Z,74.77
2022-11-21T04:14:20.987Z,81.77
2022-11-21T04:16:48.486Z,72.00
2022-11-21T04:19:15.932Z,83.97
2022-11-21T04:21:49.352Z,69.47
2022-11-21T04:24:26.378Z,85.77
2022-11-21T04:26:57.085Z,79.27
2022-11-21T04:29:24.606Z,68.80
2022-11-21T04:31:52.026Z,66.87
2022-11-21T04:34:19.478Z,75.77
2022-11-21T04:36:46.949Z,76.90
2022-11-21T04:39:14.515Z,74.50
2022-11-21T04:41:41.914Z,80.13
2022-11-21T04:44:09.345Z,87.20
2022-11-21T04:46:36.791Z,103.27
2022-11-21T04:49:04.308Z,102.63
2022-11-21T04:51:31.731Z,103.27
2022-11-21T04:53:59.181Z,100.27
2022-11-21T04:56:26.644Z,100.20
2022-11-21T04:58:54.121Z,103.23
2022-11-21T05:01:21.591Z,119.57
2022-11-21T05:03:49.078Z,100.60
2022-11-21T05:06:16.485Z,93.27
2022-11-21T05:08:46.628Z,92.87
2022-11-21T05:11:17.933Z,94.93
2022-11-21T05:13:45.377Z,97.73
2022-11-21T05:16:12.803Z,87.80
2022-11-21T05:18:40.225Z,104.60
2022-11-21T05:21:07.722Z,98.20
2022-11-21T05:23:35.150Z,99.93
2022-11-21T05:26:02.615Z,88.40
2022-11-21T05:28:30.067Z,97.50
2022-11-21T05:30:57.482Z,89.83
2022-11-21T05:33:24.917Z,85.73
2022-11-21T05:35:52.373Z,88.33
2022-11-21T05:38:19.883Z,97.87
2022-11-21T05:40:47.297Z,80.33
2022-11-21T05:43:14.707Z,82.70
2022-11-21T05:45:42.754Z,91.30
2022-11-21T05:48:10.216Z,95.43
2022-11-21T05:50:37.641Z,107.33
2022-11-21T05:53:05.456Z,99.80
2022-11-21T05:55:35.082Z,112.40
2022-11-21T05:58:02.591Z,115.93
2022-11-21T06:00:30.068Z,119.97
2022-11-21T06:02:57.921Z,125.07
2022-11-21T06:05:25.501Z,109.60
2022-11-21T06:07:52.989Z,89.20
2022-11-21T06:10:20.442Z,94.57
2022-11-21T06:12:47.936Z,88.33
2022-11-21T06:15:15.374Z,101.37
2022-11-21T06:17:42.785Z,111.17
2022-11-21T06:20:10.663Z,112.33
2022-11-21T06:22:38.116Z,100.57
2022-11-21T06:25:05.696Z,107.23
2022-11-21T06:27:33.147Z,102.33
2022-11-21T06:30:00.583Z,88.13
2022-11-21T06:32:28.282Z,96.43
2022-11-21T06:34:55.755Z,97.97
2022-11-21T06:37:23.221Z,93.67
2022-11-21T06:39:50.650Z,90.77
2022-11-21T06:42:18.121Z,88.07
2022-11-21T06:44:45.573Z,93.10
2022-11-21T06:47:13.047Z,88.47
2022-11-21T06:49:40.494Z,88.80
2022-11-21T06:52:07.916Z,88.13
2022-11-21T06:54:35.386Z,89.27
2022-11-21T06:57:02.899Z,102.90
2022-11-21T06:59:30.352Z,95.23
2022-11-21T07:01:57.879Z,105.27
2022-11-21T07:04:25.651Z,91.20
2022-11-21T07:06:53.407Z,94.43
2022-11-21T07:09:36.133Z,107.40
2022-11-21T07:12:04.045Z,104.27
2022-11-21T07:14:31.469Z,108.97
2022-11-21T07:16:58.949Z,109.77
2022-11-21T07:19:26.656Z,98.33
2022-11-21T07:21:54.280Z,124.87
2022-11-21T07:24:21.711Z,108.37
2022-11-21T07:26:49.160Z,99.20
2022-11-21T07:29:16.605Z,109.97
2022-11-21T07:31:44.071Z,110.30
2022-11-21T07:34:11.584Z,105.60
2022-11-21T07:36:39.199Z,99.93
2022-11-21T07:39:06.635Z,96.63
2022-11-21T07:41:34.146Z,91.00
2022-11-21T07:44:01.660Z,84.70
2022-11-21T07:46:29.192Z,83.50
2022-11-21T07:49:01.942Z,93.00
2022-11-21T07:51:30.670Z,85.93
2022-11-21T07:53:58.177Z,80.37
2022-11-21T07:56:25.628Z,82.17
2022-11-21T07:58:53.612Z,70.70
2022-11-21T08:01:21.281Z,77.27
2022-11-21T08:03:48.789Z,81.13
2022-11-21T08:06:16.566Z,77.47
2022-11-21T08:08:44.573Z,75.53
2022-11-21T08:11:12.048Z,72.97
2022-11-21T08:13:39.543Z,64.13
2022-11-21T08:16:07.081Z,64.03
2022-11-21T08:18:34.529Z,54.90
2022-11-21T08:21:02.792Z,53.27
2022-11-21T08:23:30.286Z,53.40
2022-11-21T08:25:57.895Z,50.33
2022-11-21T08:28:25.475Z,47.80
2022-11-21T08:30:52.961Z,44.73
2022-11-21T08:33:20.409Z,46.47
2022-11-21T08:35:47.925Z,49.60
2022-11-21T08:38:15.367Z,52.80
2022-11-21T08:40:42.884Z,40.27
2022-11-21T08:43:10.449Z,41.13
2022-11-21T08:45:38.670Z,28.23
2022-11-21T08:48:09.792Z,29.33
2022-11-21T08:50:37.226Z,23.27
2022-11-21T08:53:04.732Z,24.03
2022-11-21T08:55:32.285Z,21.50
2022-11-21T08:57:59.826Z,17.10
2022-11-21T09:00:27.687Z,17.43
2022-11-21T09:02:55.308Z,18.87
2022-11-21T09:05:22.910Z,21.03
2022-11-21T09:07:56.549Z,17.87
2022-11-21T09:10:24.361Z,21.27
2022-11-21T09:12:51.816Z,16.77
2022-11-21T09:15:19.349Z,17.07
2022-11-21T09:17:47.882Z,17.00
2022-11-21T09:20:15.614Z,21.13
2022-11-21T09:22:43.154Z,22.70
2022-11-21T09:25:10.761Z,14.17
2022-11-21T09:27:38.170Z,17.30
2022-11-21T09:30:05.870Z,18.37
2022-11-21T09:32:33.529Z,17.93
2022-11-21T09:35:01.039Z,15.57
2022-11-21T09:37:28.476Z,21.57
2022-11-21T09:39:55.974Z,17.23
2022-11-21T09:42:23.519Z,16.57
2022-11-21T09:45:09.959Z,17.93
2022-11-21T09:47:44.920Z,17.90
2022-11-21T09:50:15.387Z,20.03
2022-11-21T09:52:49.997Z,16.53
2022-11-21T09:55:22.122Z,17.53
2022-11-21T09:57:50.380Z,18.60
2022-11-21T10:00:21.716Z,13.80
2022-11-21T10:02:49.656Z,14.17
2022-11-21T10:05:17.200Z,16.57
2022-11-21T10:07:45.326Z,19.10
2022-11-21T10:10:18.852Z,19.47
2022-11-21T10:13:05.288Z,15.30
2022-11-21T10:15:32.758Z,13.27
2022-11-21T10:18:06.392Z,13.33
2022-11-21T10:20:42.781Z,16.60
2022-11-21T10:23:28.985Z,12.70
2022-11-21T10:25:57.661Z,8.97
2022-11-21T10:28:30.945Z,13.40
2022-11-21T10:30:59.851Z,11.20
2022-11-21T10:33:29.241Z,18.00
2022-11-21T10:35:59.294Z,14.33
2022-11-21T10:38:27.941Z,22.33
2022-11-21T10:41:11.203Z,14.50
2022-11-21T10:43:55.005Z,15.87
2022-11-21T10:46:22.530Z,14.73
2022-11-21T10:49:00.099Z,12.03
2022-11-21T10:51:47.193Z,14.53
2022-11-21T10:54:15.425Z,13.40
2022-11-21T10:56:42.866Z,11.27
2022-11-21T10:59:24.444Z,15.50
2022-11-21T11:01:55.874Z,12.53
2022-11-21T11:04:28.211Z,11.87
2022-11-21T11:06:56.679Z,13.13
2022-11-21T11:09:28.230Z,10.77
2022-11-21T11:12:14.310Z,10.07
2022-11-21T11:14:41.832Z,11.50
2022-11-21T11:17:14.536Z,9.10
2022-11-21T11:19:59.730Z,14.43
2022-11-21T11:22:28.291Z,10.17
2022-11-21T11:25:00.161Z,10.57
2022-11-21T11:27:30.974Z,11.07
2022-11-21T11:30:06.469Z,11.70
2022-11-21T11:32:34.014Z,9.57
2022-11-21T11:35:05.470Z,14.10
2022-11-21T11:37:41.334Z,14.05
2022-11-21T11:40:09.051Z,12.60
2022-11-21T11:42:54.691Z,10.60
2022-11-21T11:45:28.427Z,10.77
2022-11-21T11:47:57.218Z,9.60
2022-11-21T11:50:29.756Z,13.10
2022-11-21T11:53:04.295Z,9.63
2022-11-21T11:55:41.159Z,9.87
2022-11-21T12:01:19.663Z,11.87
2022-11-21T12:03:56.503Z,6.83
2022-11-21T12:06:46.885Z,8.97
2022-11-21T12:09:24.316Z,6.57
2022-11-21T12:12:14.886Z,11.57
2022-11-21T12:14:42.339Z,7.10
2022-11-21T12:17:16.871Z,4.57
2022-11-21T12:19:44.801Z,7.37
2022-11-21T12:22:15.234Z,8.27
2022-11-21T12:24:43.474Z,4.77
2022-11-21T12:27:19.985Z,7.00
2022-11-21T12:30:08.011Z,6.93
2022-11-21T12:32:47.114Z,5.63
2022-11-21T12:35:31.071Z,6.87
2022-11-21T12:38:07.039Z,8.37
2022-11-21T12:40:40.875Z,7.43
2022-11-21T12:43:27.036Z,8.10
2022-11-21T12:46:13.173Z,3.53
2022-11-21T12:48:59.298Z,5.43
2022-11-21T12:51:36.146Z,8.47
2022-11-21T12:54:21.969Z,6.73
2022-11-21T12:56:56.742Z,4.87
2022-11-21T12:59:25.053Z,5.50
2022-11-21T13:01:52.528Z,8.50
2022-11-21T13:04:26.014Z,5.40
2022-11-21T13:06:54.242Z,4.27
2022-11-21T13:09:22.828Z,7.53
2022-11-21T13:12:05.519Z,6.03
2022-11-21T13:14:33.013Z,7.00
2022-11-21T13:17:19.023Z,10.10
2022-11-21T13:19:55.522Z,5.03
2022-11-21T13:22:38.324Z,4.73
2022-11-21T13:25:24.855Z,6.83
2022-11-21T13:27:53.210Z,6.20
2022-11-21T13:30:22.734Z,5.03
2022-11-21T13:32:51.531Z,4.23
2022-11-21T13:35:22.045Z,4.80
2022-11-21T13:37:52.469Z,3.33
2022-11-21T13:40:29.126Z,4.17
2022-11-21T13:43:32.820Z,4.27
2022-11-21T13:46:01.771Z,5.53
2022-11-21T13:48:29.251Z,4.67
2022-11-21T13:51:14.667Z,5.60
2022-11-21T13:53:51.286Z,8.37
2022-11-21T13:56:32.285Z,4.33
2022-11-21T13:59:18.274Z,5.60
2022-11-21T14:01:53.808Z,4.67
2022-11-21T14:04:36.819Z,5.90
2022-11-21T14:07:21.595Z,1.23
2022-11-21T14:09:50.187Z,3.53
2022-11-21T14:12:32.680Z,6.37
2022-11-21T14:15:01.248Z,2.70
2022-11-21T14:17:47.291Z,1.80
2022-11-21T14:20:17.940Z,4.30
2022-11-21T14:22:54.469Z,8.73
2022-11-21T14:25:42.249Z,2.40
2022-11-21T14:28:15.729Z,4.03
2022-11-21T14:30:44.204Z,4.37
2022-11-21T14:33:17.918Z,3.90
2022-11-21T14:35:48.955Z,3.10
2022-11-21T14:38:16.535Z,3.30
2022-11-21T14:40:44.057Z,5.90
2022-11-21T14:43:29.434Z,3.67
2022-11-21T14:45:56.976Z,4.03
2022-11-21T14:48:31.200Z,3.60
2022-11-21T14:50:59.209Z,4.43
2022-11-21T14:53:27.114Z,2.30
2022-11-21T14:55:58.308Z,3.13
2022-11-21T14:58:28.956Z,4.07
2022-11-21T15:01:19.725Z,1.47
2022-11-21T15:03:56.199Z,4.37
2022-11-21T15:06:24.202Z,2.60
2022-11-21T15:09:58.939Z,5.57
2022-11-21T15:11:47.866Z,2.77
2022-11-21T15:14:34.066Z,4.87
2022-11-21T15:17:02.767Z,3.30
2022-11-21T15:19:31.229Z,8.77
2022-11-21T15:21:59.669Z,3.80
2022-11-21T15:24:27.210Z,4.10
2022-11-21T15:26:54.737Z,4.33
2022-11-21T15:29:22.467Z,7.50
2022-11-21T15:32:08.032Z,3.63
2022-11-21T15:34:36.583Z,3.10
2022-11-21T15:37:05.947Z,6.27
2022-11-21T15:39:33.689Z,3.97
2022-11-21T15:42:19.928Z,4.20
2022-11-21T15:45:06.388Z,6.17
2022-11-21T15:47:33.870Z,5.60
2022-11-21T15:50:01.497Z,5.57
2022-11-21T15:52:29.946Z,9.00
2022-11-21T15:54:57.365Z,6.47
2022-11-21T15:57:24.894Z,2.93
2022-11-21T15:59:52.387Z,3.90
2022-11-21T16:02:19.902Z,5.37
2022-11-21T16:04:47.354Z,7.80
2022-11-21T16:07:14.861Z,6.60
2022-11-21T16:09:42.401Z,2.60
2022-11-21T16:12:10.952Z,4.57
2022-11-21T16:14:38.380Z,4.33
2022-11-21T16:17:05.930Z,5.87
2022-11-21T16:19:33.390Z,3.83
2022-11-21T16:22:00.846Z,4.30
2022-11-21T16:24:28.312Z,6.40
2022-11-21T16:26:55.735Z,6.90
2022-11-21T16:29:23.231Z,9.53
2022-11-21T16:31:51.143Z,4.60
2022-11-21T16:34:21.430Z,7.57
2022-11-21T16:36:48.853Z,6.17
2022-11-21T16:39:18.445Z,6.13
2022-11-21T16:41:46.231Z,7.83
2022-11-21T16:44:14.382Z,3.93
2022-11-21T16:46:42.387Z,7.27
2022-11-21T16:49:09.878Z,8.13
2022-11-21T16:51:37.344Z,8.40
2022-11-21T16:54:08.846Z,16.20
2022-11-21T16:56:37.057Z,7.40
2022-11-21T16:59:04.634Z,4.60
2022-11-21T17:01:32.293Z,2.40
2022-11-21T17:03:59.940Z,2.50
2022-11-21T17:06:29.523Z,4.97
2022-11-21T17:08:57.051Z,5.43
2022-11-21T17:11:25.875Z,5.90
2022-11-21T17:13:53.386Z,4.47
2022-11-21T17:16:21.527Z,2.70
2022-11-21T17:18:52.844Z,5.33
2022-11-21T17:21:20.382Z,4.27
2022-11-21T17:23:48.182Z,4.37
2022-11-21T17:26:17.289Z,10.23
2022-11-21T17:28:46.140Z,2.27
2022-11-21T17:31:14.939Z,5.00
2022-11-21T17:37:09.460Z,7.70
2022-11-21T17:39:37.277Z,8.33
2022-11-21T17:42:04.848Z,4.80
2022-11-21T17:44:32.331Z,6.90
2022-11-21T17:47:00.147Z,5.20
2022-11-21T17:49:27.811Z,7.60
2022-11-21T17:51:56.802Z,4.23
2022-11-21T17:54:24.599Z,7.87
2022-11-21T17:56:56.665Z,8.57
2022-11-21T17:59:24.620Z,8.37
2022-11-21T18:01:52.232Z,7.93
2022-11-21T18:04:19.968Z,10.07
2022-11-21T18:06:47.462Z,3.43
2022-11-21T18:09:14.992Z,4.13
2022-11-21T18:11:42.498Z,7.47
2022-11-21T18:14:11.002Z,7.37
2022-11-21T18:16:38.912Z,6.97
2022-11-21T18:19:06.391Z,14.03
2022-11-21T18:21:34.482Z,6.03
2022-11-21T18:24:01.932Z,4.97
2022-11-21T18:26:33.459Z,9.17
2022-11-21T18:31:49.248Z,3.47
2022-11-21T18:34:16.697Z,7.87
2022-11-21T18:36:44.213Z,5.10
2022-11-21T18:39:15.158Z,4.90
2022-11-21T18:41:43.692Z,9.97
2022-11-21T18:44:14.563Z,7.20
2022-11-21T18:46:44.800Z,7.57
2022-11-21T18:49:12.308Z,10.40
2022-11-21T18:51:39.806Z,7.10
2022-11-21T18:54:08.822Z,8.20
2022-11-21T18:56:37.224Z,8.93
2022-11-21T18:59:05.029Z,10.23
2022-11-21T19:01:32.672Z,5.37
2022-11-21T19:04:00.372Z,5.20
2022-11-21T19:06:28.359Z,5.33
2022-11-21T19:08:56.870Z,6.23
2022-11-21T19:11:25.522Z,4.60
2022-11-21T19:13:53.972Z,13.73
2022-11-21T19:16:22.605Z,6.50
2022-11-21T19:19:11.661Z,4.27
2022-11-21T19:21:38.040Z,5.33
2022-11-21T19:24:05.796Z,7.67
2022-11-21T19:26:33.380Z,7.23
2022-11-21T19:29:00.952Z,7.73
2022-11-21T19:31:28.454Z,7.00
2022-11-21T19:33:56.031Z,9.00
2022-11-21T19:36:24.264Z,4.70
2022-11-21T19:38:52.097Z,6.67
2022-11-21T19:41:23.154Z,10.10
2022-11-21T19:43:51.701Z,9.27
2022-11-21T19:46:20.626Z,8.23
2022-11-21T19:48:48.855Z,5.10
2022-11-21T19:51:16.561Z,8.50
2022-11-21T19:53:44.311Z,5.97
2022-11-21T19:56:14.513Z,6.13
2022-11-21T19:58:42.490Z,11.53
2022-11-21T20:01:14.380Z,5.00
2022-11-21T20:03:43.231Z,7.70
2022-11-21T20:06:27.692Z,6.17
2022-11-21T20:08:59.176Z,8.50
2022-11-21T20:11:27.848Z,10.83
2022-11-21T20:13:55.462Z,6.93
2022-11-21T20:16:33.541Z,5.43
2022-11-21T20:19:02.326Z,9.80
2022-11-21T20:21:29.939Z,7.77
2022-11-21T20:23:57.411Z,8.10
2022-11-21T20:26:25.483Z,5.97
2022-11-21T20:28:52.944Z,6.47
2022-11-21T20:31:24.174Z,9.13
2022-11-21T20:33:52.917Z,11.23
2022-11-21T20:36:21.548Z,8.90
2022-11-21T20:38:51.756Z,7.50
2022-11-21T20:41:19.785Z,5.97
2022-11-21T20:46:35.102Z,5.83
2022-11-21T20:49:02.766Z,11.13
2022-11-21T20:54:17.734Z,9.70
2022-11-21T20:56:45.235Z,10.03
2022-11-21T20:59:12.718Z,14.67
2022-11-21T21:01:40.250Z,11.83
2022-11-21T21:04:07.779Z,8.50
2022-11-21T21:06:35.751Z,8.40
2022-11-21T21:09:03.166Z,8.27
2022-11-21T21:11:51.095Z,10.33
2022-11-21T21:14:18.131Z,9.10
2022-11-21T21:16:45.633Z,8.60
2022-11-21T21:19:13.100Z,9.40
2022-11-21T21:21:40.501Z,13.17
2022-11-21T21:24:09.082Z,10.17
2022-11-21T21:26:42.144Z,9.10
2022-11-21T21:29:11.469Z,7.97
2022-11-21T21:31:38.938Z,13.13
2022-11-21T21:34:06.469Z,11.43
2022-11-21T21:36:33.951Z,12.70
2022-11-21T21:39:01.446Z,7.80
2022-11-21T21:41:29.839Z,12.27
2022-11-21T21:43:57.895Z,12.00
2022-11-21T21:46:26.444Z,8.03
2022-11-21T21:48:54.633Z,6.47
2022-11-21T21:51:26.090Z,11.83
2022-11-21T21:53:54.130Z,6.60
2022-11-21T21:56:22.141Z,8.33
2022-11-21T21:58:50.166Z,9.50
2022-11-21T22:01:17.626Z,6.67
2022-11-21T22:03:46.034Z,5.40
2022-11-21T22:06:14.879Z,7.33
2022-11-21T22:08:42.553Z,9.63
2022-11-21T22:11:12.832Z,11.63
2022-11-21T22:13:41.698Z,6.53
2022-11-21T22:16:09.872Z,8.47
2022-11-21T22:18:37.630Z,8.30
2022-11-21T22:21:14.679Z,8.90
2022-11-21T22:24:02.444Z,11.33
2022-11-21T22:26:29.823Z,11.17
2022-11-21T22:28:57.261Z,8.40
2022-11-21T22:31:24.675Z,12.60
2022-11-21T22:33:52.126Z,10.63
2022-11-21T22:36:19.731Z,9.83
2022-11-21T22:38:47.420Z,7.70
2022-11-21T22:41:18.618Z,10.77
2022-11-21T22:43:49.623Z,9.30
2022-11-21T22:46:17.171Z,7.83
2022-11-21T22:48:44.569Z,7.43
2022-11-21T22:51:15.646Z,10.00
2022-11-21T22:53:43.580Z,7.70
2022-11-21T22:56:11.801Z,8.07
2022-11-21T22:58:40.257Z,9.60
2022-11-21T23:01:09.380Z,8.93
2022-11-21T23:03:37.114Z,8.37
2022-11-21T23:06:09.834Z,10.77
2022-11-21T23:08:37.507Z,11.43
2022-11-21T23:11:09.477Z,11.13
2022-11-21T23:13:37.696Z,10.73
2022-11-21T23:16:05.841Z,9.20
2022-11-21T23:18:33.505Z,10.37
2022-11-21T23:21:01.330Z,8.47
2022-11-21T23:23:29.117Z,5.33
2022-11-21T23:25:56.580Z,6.57
2022-11-21T23:28:24.014Z,11.13
2022-11-21T23:30:51.664Z,7.70
2022-11-21T23:33:19.102Z,7.07
2022-11-21T23:35:46.978Z,6.43
2022-11-21T23:38:15.104Z,4.27
2022-11-21T23:40:42.523Z,11.57
2022-11-21T23:43:10.026Z,6.23
2022-11-21T23:45:37.462Z,8.33
2022-11-21T23:48:05.059Z,7.20
2022-11-21T23:50:32.498Z,7.93
2022-11-21T23:52:59.977Z,6.80
2022-11-21T23:55:27.396Z,3.60
2022-11-21T23:57:54.797Z,9.50
